Terminal Aerodrome Forecast
Issued by NWS

Current Version | Previous Version | Text Only | Print | Product List | Glossary On
Versions: 1 2 3 4 5 6 7 8 9 10 11 12 13 14
843
FTUS46 KSTO 221120
TAFRDD
TAF
KRDD 221120Z 2212/2312 00000KT 3SM -RA BR FEW004 BKN010 OVC014
      TEMPO 2214/2217 1SM BR OVC003
     FM230500 36003KT 4SM BR OVC005=

USA.gov is the U.S. government's official web portal to all federal, state and local government web resources and services.